createdAt,value
2022-09-11T00:01:46.499Z,100368.09
2022-09-11T00:04:14.326Z,100369.69
2022-09-11T00:06:43.053Z,100369.34
2022-09-11T00:09:10.898Z,100370.75
2022-09-11T00:11:41.556Z,100372.69
2022-09-11T00:14:10.219Z,100376.25
2022-09-11T00:16:41.668Z,100367.72
2022-09-11T00:19:12.427Z,100365.25
2022-09-11T00:21:40.854Z,100363.41
2022-09-11T00:24:10.133Z,100380.97
2022-09-11T00:26:38.710Z,100380.25
2022-09-11T00:29:06.825Z,100382.56
2022-09-11T00:31:34.853Z,100376.97
2022-09-11T00:34:04.217Z,100384.28
2022-09-11T00:36:32.983Z,100379.25
2022-09-11T00:39:01.147Z,100388.00
2022-09-11T00:41:31.769Z,100383.38
2022-09-11T00:44:03.277Z,100385.03
2022-09-11T00:46:35.704Z,100385.81
2022-09-11T00:49:16.684Z,100396.75
2022-09-11T00:51:47.828Z,100403.00
2022-09-11T00:54:20.992Z,100394.84
2022-09-11T00:56:50.319Z,100388.13
2022-09-11T00:59:21.322Z,100404.88
2022-09-11T01:01:49.225Z,100417.56
2022-09-11T01:04:18.558Z,100414.94
2022-09-11T01:06:46.741Z,100413.88
2022-09-11T01:09:14.553Z,100416.59
2022-09-11T01:11:54.943Z,100420.47
2022-09-11T01:14:34.756Z,100408.28
2022-09-11T01:17:16.013Z,100418.16
2022-09-11T01:20:14.190Z,100407.59
2022-09-11T01:23:04.874Z,100427.78
2022-09-11T01:25:46.450Z,100426.88
2022-09-11T01:28:17.777Z,100417.50
2022-09-11T01:30:48.561Z,100425.63
2022-09-11T01:33:25.096Z,100433.09
2022-09-11T01:36:00.629Z,100440.22
2022-09-11T01:38:36.310Z,100429.50
2022-09-11T01:41:10.258Z,100422.78
2022-09-11T01:43:43.396Z,100434.56
2022-09-11T01:46:17.375Z,100423.22
2022-09-11T01:48:48.559Z,100426.13
2022-09-11T01:51:21.576Z,100417.25
2022-09-11T01:53:52.242Z,100433.50
2022-09-11T01:56:24.770Z,100428.78
2022-09-11T01:58:58.396Z,100431.34
2022-09-11T02:01:31.495Z,100425.28
2022-09-11T02:04:07.087Z,100428.84
2022-09-11T02:06:38.756Z,100435.31
2022-09-11T02:09:10.302Z,100438.28
2022-09-11T02:11:41.890Z,100433.66
2022-09-11T02:14:17.915Z,100434.28
2022-09-11T02:16:50.925Z,100431.22
2022-09-11T02:19:20.778Z,100435.91
2022-09-11T02:21:49.086Z,100439.34
2022-09-11T02:24:17.676Z,100437.63
2022-09-11T02:26:49.410Z,100443.84
2022-09-11T02:29:18.982Z,100441.34
2022-09-11T02:31:47.319Z,100447.38
2022-09-11T02:34:16.187Z,100444.66
2022-09-11T02:37:13.946Z,100458.19
2022-09-11T02:39:55.819Z,100468.66
2022-09-11T02:42:38.859Z,100470.69
2022-09-11T02:45:23.899Z,100473.41
2022-09-11T02:47:59.692Z,100462.97
2022-09-11T02:50:34.851Z,100468.56
2022-09-11T02:53:07.759Z,100476.25
2022-09-11T02:55:45.810Z,100470.69
2022-09-11T02:58:18.955Z,100481.84
2022-09-11T03:00:48.653Z,100475.16
2022-09-11T03:03:16.788Z,100478.38
2022-09-11T03:05:44.804Z,100488.97
2022-09-11T03:08:14.612Z,100483.50
2022-09-11T03:10:42.992Z,100485.63
2022-09-11T03:13:10.797Z,100486.59
2022-09-11T03:15:38.648Z,100476.84
2022-09-11T03:18:08.045Z,100497.53
2022-09-11T03:20:35.807Z,100496.34
2022-09-11T03:23:09.593Z,100501.78
2022-09-11T03:25:37.457Z,100502.53
2022-09-11T03:28:05.426Z,100510.59
2022-09-11T03:30:34.191Z,100514.16
2022-09-11T03:33:02.231Z,100517.94
2022-09-11T03:35:31.375Z,100524.47
2022-09-11T03:37:59.091Z,100508.81
2022-09-11T03:40:27.334Z,100524.13
2022-09-11T03:42:55.230Z,100518.91
2022-09-11T03:45:23.023Z,100530.53
2022-09-11T03:47:50.759Z,100530.31
2022-09-11T03:50:18.664Z,100532.19
2022-09-11T03:52:47.796Z,100529.69
2022-09-11T03:55:16.498Z,100531.38
2022-09-11T03:57:44.482Z,100534.69
2022-09-11T04:00:13.177Z,100541.22
2022-09-11T04:02:42.098Z,100543.72
2022-09-11T04:05:10.602Z,100546.69
2022-09-11T04:07:38.508Z,100539.94
2022-09-11T04:10:08.201Z,100542.63
2022-09-11T04:12:36.201Z,100547.63
2022-09-11T04:15:04.075Z,100559.50
2022-09-11T04:17:32.603Z,100554.25
2022-09-11T04:20:00.302Z,100543.56
2022-09-11T04:22:28.138Z,100550.22
2022-09-11T04:24:57.393Z,100534.91
2022-09-11T04:27:27.128Z,100532.53
2022-09-11T04:29:54.987Z,100535.72
2022-09-11T04:32:22.685Z,100537.16
2022-09-11T04:34:50.582Z,100540.25
2022-09-11T04:37:19.780Z,100529.25
2022-09-11T04:39:50.787Z,100540.41
2022-09-11T04:42:18.592Z,100545.25
2022-09-11T04:44:47.974Z,100544.09
2022-09-11T04:47:17.040Z,100551.31
2022-09-11T04:49:46.754Z,100547.63
2022-09-11T04:52:18.150Z,100547.75
2022-09-11T04:54:46.410Z,100553.28
2022-09-11T04:57:14.364Z,100557.56
2022-09-11T04:59:42.143Z,100557.41
2022-09-11T05:02:11.354Z,100556.25
2022-09-11T05:04:39.113Z,100566.81
2022-09-11T05:07:06.943Z,100575.09
2022-09-11T05:09:35.222Z,100576.91
2022-09-11T05:12:04.078Z,100579.50
2022-09-11T05:14:32.659Z,100578.59
2022-09-11T05:17:01.427Z,100576.34
2022-09-11T05:19:30.528Z,100582.66
2022-09-11T05:21:58.497Z,100580.63
2022-09-11T05:24:26.269Z,100582.44
2022-09-11T05:26:53.966Z,100581.47
2022-09-11T05:29:23.036Z,100586.72
2022-09-11T05:31:52.651Z,100583.34
2022-09-11T05:34:22.150Z,100595.09
2022-09-11T05:36:52.206Z,100596.66
2022-09-11T05:39:20.218Z,100593.34
2022-09-11T05:41:50.832Z,100603.09
2022-09-11T05:44:18.674Z,100605.94
2022-09-11T05:46:46.793Z,100611.63
2022-09-11T05:49:14.475Z,100617.81
2022-09-11T05:51:42.273Z,100613.41
2022-09-11T05:54:11.632Z,100618.03
2022-09-11T05:56:39.598Z,100618.28
2022-09-11T05:59:14.921Z,100608.44
2022-09-11T06:01:43.921Z,100612.34
2022-09-11T06:04:12.325Z,100618.66
2022-09-11T06:06:40.677Z,100630.16
2022-09-11T06:09:08.403Z,100626.22
2022-09-11T06:11:37.531Z,100622.22
2022-09-11T06:14:05.226Z,100635.75
2022-09-11T06:16:33.223Z,100640.13
2022-09-11T06:19:01.391Z,100638.25
2022-09-11T06:21:29.218Z,100627.78
2022-09-11T06:23:57.083Z,100652.00
2022-09-11T06:26:26.571Z,100650.22
2022-09-11T06:28:55.880Z,100648.56
2022-09-11T06:31:25.784Z,100651.06
2022-09-11T06:33:54.021Z,100658.06
2022-09-11T06:36:24.287Z,100659.38
2022-09-11T06:38:55.051Z,100655.97
2022-09-11T06:41:22.992Z,100663.78
2022-09-11T06:43:51.040Z,100667.22
2022-09-11T06:46:21.927Z,100666.00
2022-09-11T06:48:50.682Z,100659.44
2022-09-11T06:51:20.510Z,100669.03
2022-09-11T06:53:49.095Z,100672.13
2022-09-11T06:56:18.698Z,100671.38
2022-09-11T06:58:47.047Z,100679.59
2022-09-11T07:01:16.783Z,100665.59
2022-09-11T07:03:47.110Z,100669.28
2022-09-11T07:06:16.151Z,100670.59
2022-09-11T07:08:44.097Z,100671.91
2022-09-11T07:11:12.829Z,100672.00
2022-09-11T07:13:42.008Z,100668.59
2022-09-11T07:16:12.514Z,100665.19
2022-09-11T07:18:41.875Z,100666.50
2022-09-11T07:21:13.327Z,100678.75
2022-09-11T07:23:43.296Z,100676.63
2022-09-11T07:26:13.264Z,100682.53
2022-09-11T07:28:41.388Z,100677.91
2022-09-11T07:31:11.910Z,100689.84
2022-09-11T07:33:40.493Z,100683.13
2022-09-11T07:36:11.983Z,100680.91
2022-09-11T07:38:40.900Z,100685.53
2022-09-11T07:41:08.791Z,100688.59
2022-09-11T07:43:36.902Z,100695.31
2022-09-11T07:46:05.757Z,100692.59
2022-09-11T07:48:34.041Z,100693.09
2022-09-11T07:51:04.426Z,100696.94
2022-09-11T07:53:35.347Z,100703.50
2022-09-11T07:56:04.731Z,100697.16
2022-09-11T07:58:35.035Z,100707.50
2022-09-11T08:01:03.540Z,100702.66
2022-09-11T08:03:31.397Z,100697.66
2022-09-11T08:05:59.803Z,100696.47
2022-09-11T08:08:29.237Z,100705.91
2022-09-11T08:10:58.371Z,100705.91
2022-09-11T08:13:26.111Z,100691.66
2022-09-11T08:15:53.847Z,100707.75
2022-09-11T08:18:21.557Z,100703.34
2022-09-11T08:20:49.323Z,100700.66
2022-09-11T08:23:17.417Z,100705.84
2022-09-11T08:25:45.505Z,100694.28
2022-09-11T08:28:15.074Z,100695.06
2022-09-11T08:30:43.034Z,100707.38
2022-09-11T08:33:14.047Z,100691.38
2022-09-11T08:35:42.382Z,100705.34
2022-09-11T08:38:10.114Z,100710.09
2022-09-11T08:40:39.037Z,100704.22
2022-09-11T08:43:07.232Z,100711.94
2022-09-11T08:45:36.925Z,100704.66
2022-09-11T08:48:09.171Z,100704.59
2022-09-11T08:50:40.904Z,100720.84
2022-09-11T08:53:15.219Z,100717.56
2022-09-11T08:55:46.689Z,100713.69
2022-09-11T08:58:24.104Z,100705.44
2022-09-11T09:00:58.901Z,100717.78
2022-09-11T09:03:49.077Z,100713.06
2022-09-11T09:06:28.750Z,100712.03
2022-09-11T09:09:04.530Z,100726.97
2022-09-11T09:11:39.959Z,100723.09
2022-09-11T09:14:51.839Z,100708.47
2022-09-11T09:17:24.925Z,100723.06
2022-09-11T09:20:00.470Z,100734.69
2022-09-11T09:22:37.473Z,100731.31
2022-09-11T09:25:11.946Z,100726.09
2022-09-11T09:27:43.399Z,100739.91
2022-09-11T09:30:16.858Z,100741.03
2022-09-11T09:32:50.702Z,100740.44
2022-09-11T09:35:24.487Z,100736.53
2022-09-11T09:37:52.463Z,100744.88
2022-09-11T09:40:20.401Z,100739.38
2022-09-11T09:43:14.438Z,100739.88
2022-09-11T09:46:04.467Z,100745.13
2022-09-11T09:48:40.624Z,100746.25
2022-09-11T09:51:13.397Z,100753.72
2022-09-11T09:53:45.779Z,100742.16
2022-09-11T09:56:17.459Z,100748.13
2022-09-11T09:58:51.828Z,100746.53
2022-09-11T10:01:44.822Z,100750.50
2022-09-11T10:04:17.452Z,100756.91
2022-09-11T10:06:46.991Z,100750.22
2022-09-11T10:09:28.039Z,100759.78
2022-09-11T10:12:02.435Z,100750.94
2022-09-11T10:17:31.242Z,100758.88
2022-09-11T10:20:21.836Z,100751.47
2022-09-11T10:22:50.758Z,100752.69
2022-09-11T10:25:21.385Z,100749.00
2022-09-11T10:27:59.287Z,100741.09
2022-09-11T10:30:31.387Z,100740.66
2022-09-11T10:33:03.706Z,100743.44
2022-09-11T10:35:35.588Z,100738.00
2022-09-11T10:38:17.812Z,100731.31
2022-09-11T10:40:59.379Z,100732.25
2022-09-11T10:43:35.523Z,100729.69
2022-09-11T10:46:05.405Z,100726.41
2022-09-11T10:48:33.801Z,100725.06
2022-09-11T10:51:10.788Z,100720.47
2022-09-11T10:53:48.984Z,100716.88
2022-09-11T10:56:17.766Z,100717.75
2022-09-11T10:58:51.368Z,100716.25
2022-09-11T11:01:21.220Z,100714.19
2022-09-11T11:03:49.014Z,100724.47
2022-09-11T11:06:32.579Z,100725.28
2022-09-11T11:09:30.852Z,100713.97
2022-09-11T11:15:01.343Z,100732.50
2022-09-11T11:17:38.502Z,100728.06
2022-09-11T11:20:22.093Z,100729.16
2022-09-11T11:23:16.356Z,100728.31
2022-09-11T11:25:54.159Z,100731.31
2022-09-11T11:28:43.260Z,100731.47
2022-09-11T11:31:23.904Z,100734.22
2022-09-11T11:34:09.170Z,100736.00
2022-09-11T11:36:42.619Z,100730.69
2022-09-11T11:39:23.641Z,100732.09
2022-09-11T11:42:01.634Z,100737.91
2022-09-11T11:44:33.933Z,100736.56
2022-09-11T11:47:06.700Z,100739.63
2022-09-11T11:49:48.892Z,100733.91
2022-09-11T11:52:38.529Z,100738.53
2022-09-11T11:55:18.371Z,100735.69
2022-09-11T11:57:56.752Z,100735.72
2022-09-11T12:00:25.486Z,100733.66
2022-09-11T12:02:59.443Z,100719.28
2022-09-11T12:05:30.236Z,100736.22
2022-09-11T12:07:59.023Z,100736.09
2022-09-11T12:10:34.751Z,100732.06
2022-09-11T12:13:07.320Z,100731.31
2022-09-11T12:15:36.679Z,100724.91
2022-09-11T12:18:08.316Z,100718.31
2022-09-11T12:20:41.493Z,100717.84
2022-09-11T12:23:46.914Z,100713.28
2022-09-11T12:26:22.135Z,100715.28
2022-09-11T12:28:50.755Z,100722.00
2022-09-11T12:31:19.379Z,100723.31
2022-09-11T12:33:57.322Z,100721.53
2022-09-11T12:36:37.345Z,100716.19
2022-09-11T12:39:23.968Z,100728.31
2022-09-11T12:41:53.383Z,100718.94
2022-09-11T12:44:54.137Z,100719.53
2022-09-11T12:47:24.851Z,100721.28
2022-09-11T12:49:57.132Z,100710.69
2022-09-11T12:52:35.730Z,100711.03
2022-09-11T12:55:22.679Z,100709.91
2022-09-11T12:57:52.367Z,100718.84
2022-09-11T13:00:24.447Z,100712.00
2022-09-11T13:02:56.823Z,100708.06
2022-09-11T13:05:28.066Z,100699.53
2022-09-11T13:08:00.627Z,100697.59
2022-09-11T13:10:33.408Z,100682.69
2022-09-11T13:13:04.677Z,100697.41
2022-09-11T13:15:37.724Z,100682.91
2022-09-11T13:18:32.250Z,100691.53
2022-09-11T13:21:03.364Z,100689.41
2022-09-11T13:23:31.521Z,100683.94
2022-09-11T13:25:59.510Z,100674.63
2022-09-11T13:28:31.820Z,100679.63
2022-09-11T13:31:02.088Z,100671.25
2022-09-11T13:33:32.595Z,100683.06
2022-09-11T13:36:03.574Z,100671.50
2022-09-11T13:38:34.980Z,100673.38
2022-09-11T13:41:06.982Z,100670.22
2022-09-11T13:43:39.653Z,100653.53
2022-09-11T13:46:12.388Z,100670.31
2022-09-11T13:48:40.172Z,100662.22
2022-09-11T13:51:13.504Z,100661.03
2022-09-11T13:53:43.686Z,100655.63
2022-09-11T13:56:21.653Z,100654.34
2022-09-11T13:58:53.564Z,100644.41
2022-09-11T14:01:21.580Z,100652.63
2022-09-11T14:03:49.952Z,100656.25
2022-09-11T14:06:20.770Z,100648.47
2022-09-11T14:08:52.420Z,100639.91
2022-09-11T14:11:26.014Z,100643.78
2022-09-11T14:13:59.384Z,100641.66
2022-09-11T14:16:31.480Z,100639.31
2022-09-11T14:19:03.950Z,100627.38
2022-09-11T14:21:34.559Z,100618.97
2022-09-11T14:24:07.163Z,100616.06
2022-09-11T14:26:42.333Z,100624.94
2022-09-11T14:29:25.638Z,100628.03
2022-09-11T14:31:54.879Z,100634.59
2022-09-11T14:34:26.320Z,100642.13
2022-09-11T14:36:57.489Z,100639.59
2022-09-11T14:39:34.482Z,100626.06
2022-09-11T14:42:03.173Z,100624.94
2022-09-11T14:44:32.755Z,100638.63
2022-09-11T14:47:00.585Z,100636.69
2022-09-11T14:49:29.503Z,100633.16
2022-09-11T14:51:59.677Z,100634.19
2022-09-11T14:54:31.006Z,100640.53
2022-09-11T14:56:59.275Z,100638.16
2022-09-11T14:59:29.691Z,100638.03
2022-09-11T15:01:59.521Z,100634.78
2022-09-11T15:04:29.441Z,100634.91
2022-09-11T15:06:57.886Z,100623.09
2022-09-11T15:09:25.779Z,100626.88
2022-09-11T15:11:53.706Z,100622.81
2022-09-11T15:14:44.704Z,100622.41
2022-09-11T15:17:14.536Z,100620.41
2022-09-11T15:19:45.699Z,100608.50
2022-09-11T15:22:13.528Z,100616.72
2022-09-11T15:24:41.932Z,100617.50
2022-09-11T15:27:11.371Z,100624.69
2022-09-11T15:29:39.766Z,100633.56
2022-09-11T15:32:09.284Z,100620.88
2022-09-11T15:34:39.220Z,100620.34
2022-09-11T15:37:07.341Z,100615.06
2022-09-11T15:39:35.259Z,100608.88
2022-09-11T15:42:03.065Z,100605.66
2022-09-11T15:44:31.403Z,100594.16
2022-09-11T15:46:59.796Z,100595.47
2022-09-11T15:49:29.175Z,100597.81
2022-09-11T15:51:59.579Z,100600.78
2022-09-11T15:54:27.848Z,100572.75
2022-09-11T15:56:56.167Z,100598.84
2022-09-11T15:59:23.926Z,100589.34
2022-09-11T16:01:51.917Z,100599.41
2022-09-11T16:04:23.019Z,100595.69
2022-09-11T16:06:51.507Z,100599.41
2022-09-11T16:09:23.101Z,100606.22
2022-09-11T16:11:52.194Z,100602.56
2022-09-11T16:14:21.777Z,100604.69
2022-09-11T16:16:49.730Z,100595.16
2022-09-11T16:19:19.943Z,100604.94
2022-09-11T16:21:48.778Z,100596.16
2022-09-11T16:24:16.891Z,100591.09
2022-09-11T16:26:46.289Z,100601.19
2022-09-11T16:29:17.909Z,100592.81
2022-09-11T16:31:45.859Z,100596.28
2022-09-11T16:34:15.035Z,100592.81
2022-09-11T16:36:42.999Z,100591.44
2022-09-11T16:39:13.046Z,100595.25
2022-09-11T16:41:40.887Z,100594.72
2022-09-11T16:44:12.797Z,100596.47
2022-09-11T16:46:42.208Z,100596.38
2022-09-11T16:49:11.109Z,100605.84
2022-09-11T16:51:38.940Z,100609.56
2022-09-11T16:54:07.725Z,100608.28
2022-09-11T16:56:35.533Z,100602.50
2022-09-11T16:59:03.288Z,100597.00
2022-09-11T17:01:32.394Z,100601.41
2022-09-11T17:04:00.205Z,100603.34
2022-09-11T17:06:29.878Z,100597.84
2022-09-11T17:09:00.134Z,100598.69
2022-09-11T17:11:29.685Z,100598.69
2022-09-11T17:13:57.906Z,100595.94
2022-09-11T17:16:28.191Z,100599.00
2022-09-11T17:18:58.413Z,100597.56
2022-09-11T17:21:27.619Z,100592.34
2022-09-11T17:23:57.016Z,100610.22
2022-09-11T17:26:25.189Z,100601.94
2022-09-11T17:28:55.062Z,100596.66
2022-09-11T17:31:23.535Z,100598.53
2022-09-11T17:33:51.448Z,100588.78
2022-09-11T17:36:22.231Z,100601.41
2022-09-11T17:38:52.492Z,100592.28
2022-09-11T17:41:21.857Z,100597.97
2022-09-11T17:43:49.926Z,100608.91
2022-09-11T17:46:19.826Z,100610.47
2022-09-11T17:48:48.025Z,100607.88
2022-09-11T17:51:20.115Z,100610.47
2022-09-11T17:53:51.435Z,100616.44
2022-09-11T17:56:20.879Z,100613.66
2022-09-11T17:58:51.351Z,100616.91
2022-09-11T18:01:19.972Z,100617.19
2022-09-11T18:03:52.535Z,100615.81
2022-09-11T18:06:25.378Z,100619.31
2022-09-11T18:08:56.551Z,100620.72
2022-09-11T18:11:24.877Z,100624.50
2022-09-11T18:13:53.606Z,100626.06
2022-09-11T18:16:21.592Z,100616.56
2022-09-11T18:18:49.420Z,100632.19
2022-09-11T18:21:17.371Z,100621.13
2022-09-11T18:23:46.499Z,100625.50
2022-09-11T18:26:23.116Z,100628.84
2022-09-11T18:28:51.593Z,100635.13
2022-09-11T18:31:20.058Z,100635.25
2022-09-11T18:33:54.594Z,100639.97
2022-09-11T18:36:23.480Z,100635.56
2022-09-11T18:38:51.628Z,100635.00
2022-09-11T18:41:21.572Z,100638.31
2022-09-11T18:43:49.383Z,100642.41
2022-09-11T18:46:17.221Z,100644.13
2022-09-11T18:48:45.659Z,100643.38
2022-09-11T18:51:15.177Z,100652.13
2022-09-11T18:53:43.555Z,100639.38
2022-09-11T18:56:12.148Z,100652.25
2022-09-11T18:58:41.826Z,100669.53
2022-09-11T19:01:12.082Z,100657.41
2022-09-11T19:03:41.669Z,100653.25
2022-09-11T19:06:11.683Z,100650.31
2022-09-11T19:08:41.297Z,100667.63
2022-09-11T19:11:10.834Z,100663.53
2022-09-11T19:13:39.928Z,100649.69
2022-09-11T19:16:09.821Z,100659.13
2022-09-11T19:18:39.308Z,100652.81
2022-09-11T19:21:10.256Z,100670.84
2022-09-11T19:23:40.253Z,100671.75
2022-09-11T19:26:12.017Z,100676.41
2022-09-11T19:28:42.146Z,100660.28
2022-09-11T19:31:13.142Z,100675.66
2022-09-11T19:33:48.182Z,100680.47
2022-09-11T19:36:18.303Z,100686.78
2022-09-11T19:38:49.570Z,100670.88
2022-09-11T19:41:20.394Z,100668.22
2022-09-11T19:43:48.761Z,100685.47
2022-09-11T19:46:19.656Z,100683.84
2022-09-11T19:48:48.776Z,100680.91
2022-09-11T19:51:21.404Z,100680.63
2022-09-11T19:53:50.776Z,100678.28
2022-09-11T19:56:19.695Z,100675.47
2022-09-11T19:58:47.667Z,100677.13
2022-09-11T20:01:18.476Z,100671.75
2022-09-11T20:03:48.800Z,100667.50
2022-09-11T20:06:18.352Z,100674.03
2022-09-11T20:08:48.269Z,100661.56
2022-09-11T20:11:18.890Z,100671.22
2022-09-11T20:13:47.322Z,100673.94
2022-09-11T20:16:20.132Z,100667.19
2022-09-11T20:18:48.384Z,100669.66
2022-09-11T20:21:17.519Z,100680.66
2022-09-11T20:23:46.570Z,100685.16
2022-09-11T20:26:17.551Z,100687.31
2022-09-11T20:28:46.334Z,100688.97
2022-09-11T20:31:15.368Z,100684.91
2022-09-11T20:33:46.198Z,100682.69
2022-09-11T20:36:14.815Z,100673.72
2022-09-11T20:38:43.033Z,100685.03
2022-09-11T20:41:14.871Z,100678.25
2022-09-11T20:43:43.008Z,100687.34
2022-09-11T20:46:11.372Z,100691.13
2022-09-11T20:48:39.541Z,100687.09
2022-09-11T20:51:11.039Z,100690.94
2022-09-11T20:53:41.689Z,100692.63
2022-09-11T20:56:12.537Z,100696.56
2022-09-11T20:58:40.387Z,100688.75
2022-09-11T21:01:11.362Z,100687.56
2022-09-11T21:03:39.095Z,100679.88
2022-09-11T21:06:09.657Z,100689.03
2022-09-11T21:08:37.614Z,100692.13
2022-09-11T21:11:06.908Z,100692.50
2022-09-11T21:13:35.932Z,100687.31
2022-09-11T21:16:06.963Z,100678.34
2022-09-11T21:18:35.605Z,100680.63
2022-09-11T21:21:03.561Z,100683.97
2022-09-11T21:23:33.398Z,100677.31
2022-09-11T21:26:01.191Z,100677.31
2022-09-11T21:28:29.348Z,100681.00
2022-09-11T21:31:02.021Z,100679.47
2022-09-11T21:33:30.503Z,100666.28
2022-09-11T21:35:58.544Z,100680.19
2022-09-11T21:38:29.459Z,100670.44
2022-09-11T21:41:00.789Z,100675.31
2022-09-11T21:43:29.795Z,100672.47
2022-09-11T21:45:57.764Z,100681.13
2022-09-11T21:48:25.980Z,100656.31
2022-09-11T21:50:53.906Z,100675.44
2022-09-11T21:53:22.121Z,100651.19
2022-09-11T21:55:49.990Z,100675.75
2022-09-11T21:58:21.188Z,100677.69
2022-09-11T22:00:49.936Z,100673.06
2022-09-11T22:03:19.665Z,100662.47
2022-09-11T22:05:52.182Z,100668.03
2022-09-11T22:08:20.873Z,100665.56
2022-09-11T22:10:51.473Z,100672.03
2022-09-11T22:13:21.086Z,100675.22
2022-09-11T22:15:51.649Z,100669.44
2022-09-11T22:18:20.106Z,100664.78
2022-09-11T22:20:48.058Z,100674.53
2022-09-11T22:23:18.117Z,100662.75
2022-09-11T22:25:47.062Z,100661.91
2022-09-11T22:28:15.973Z,100662.72
2022-09-11T22:30:45.523Z,100668.69
2022-09-11T22:33:13.335Z,100635.00
2022-09-11T22:35:41.176Z,100666.44
2022-09-11T22:38:08.975Z,100636.88
2022-09-11T22:40:36.944Z,100661.59
2022-09-11T22:43:04.734Z,100658.03
2022-09-11T22:45:32.949Z,100660.06
2022-09-11T22:48:02.799Z,100659.56
2022-09-11T22:50:31.001Z,100659.03
2022-09-11T22:52:58.845Z,100643.31
2022-09-11T22:55:26.911Z,100636.53
2022-09-11T22:57:55.238Z,100643.88
2022-09-11T23:00:23.161Z,100634.97
2022-09-11T23:02:50.886Z,100673.63
2022-09-11T23:05:38.004Z,100658.34
2022-09-11T23:08:05.772Z,100674.47
2022-09-11T23:10:33.612Z,100655.72
2022-09-11T23:13:01.423Z,100667.22
2022-09-11T23:15:29.149Z,100661.53
2022-09-11T23:17:56.878Z,100663.56
2022-09-11T23:20:26.325Z,100650.72
2022-09-11T23:22:54.396Z,100669.63
2022-09-11T23:25:22.277Z,100667.59
2022-09-11T23:27:50.127Z,100618.72
2022-09-11T23:30:18.117Z,100619.38
2022-09-11T23:32:46.008Z,100662.75
2022-09-11T23:35:14.071Z,100657.63
2022-09-11T23:37:45.464Z,100658.22
2022-09-11T23:40:13.535Z,100628.38
2022-09-11T23:42:41.418Z,100649.34
2022-09-11T23:45:12.636Z,100646.84
2022-09-11T23:47:40.719Z,100642.94
2022-09-11T23:50:09.538Z,100642.00
2022-09-11T23:52:39.413Z,100654.59
2022-09-11T23:55:09.414Z,100647.31
2022-09-11T23:57:37.449Z,100649.66
